Fernwood, ID

12:01 AM PDT on July 30, 2014 (GMT -0700)
KIDFERNW2 Elev 2818 ft | 47.11 °N, 116.40 °W | Change Station

Current weather conditions updated 6 seconds ago

Clear
Clear
58.8 °F
Feels Like 58.8 °F
N
0.0
Wind Variable Wind from WSW
Gusts 0.0 mph

Today is forecast to be nearly the same temperature as yesterday.

Today
High -- | Low -- °F
--% Chance of Precip.
Yesterday
High -- | Low -- °F
Precip. -- in
5:22 AM 8:20 PM
Waxing Crescent, 10% visible
Pressure 30.00 in
Visibility 10.0 miles
Clouds Clear
Dew Point 48 °F
Humidity 66%
Rainfall 0.00 in
Snow Depth Not available.
UV 0 out of 12
Pollen 6.90 out of 12
Air Quality Not available.
Flu Activity Not available.
METAR KPUW 300653Z AUTO 00000KT 10SM CLR 17/08 A3005 RMK AO2 SLP157 T01720083

More Conditions Fewer Conditions

Pressure 30.00 in
Visibility 10.0 miles
Clouds Clear
Dew Point 48 °F
Humidity 66%
Rainfall 0.00 in
Snow Depth Not available.
UV 0 out of 12
Pollen 6.90 out of 12
Air Quality Not available.
Flu Activity Not available.
METAR KPUW 300653Z AUTO 00000KT 10SM CLR 17/08 A3005 RMK AO2 SLP157 T01720083

More Conditions Fewer Conditions

10-Day Weather Forecast

Almanac

Astronomy

Jul. 30, 2014 Rise Set
Actual Time 5:22 AM PDT 8:20 PM PDT
Civil Twilight 4:46 AM PDT 8:56 PM PDT
Nautical Twilight 4:00 AM PDT 9:42 PM PDT
Astronomical Twilight 3:03 AM PDT 10:37 PM PDT
Moon 9:15 AM PDT 9:46 PM PDT
Length of Visible Light 16h 10m
Length of Day
14h 58m
Tomorrow will be 2m 34s shorter.
Waxing Crescent, 10% of the Moon is Illuminated
Today
Waxing Crescent
Aug 3
First Quarter
Aug 10
Full
Aug 17
Last Quarter
Aug 25
New

Today's Extremes

State Highs State Lows

Community

WunderPhotos

Upload Photos

1,739,022 photos uploaded!

WunderBlogs® & News

By Dr. Jeff Masters
Director of Meteorology, Weather Underground
By Kari Strenfel
Meteorologist, Weather Underground
By Christopher C. Burt
Weather Historian, Weather Underground
July 29, 2014
July 29, 2014
July 29, 2014

Nearby

Snow Depth

Station Depth Elevation
Sherwin 0 in 3200 ft
Lost Lake 0 in 6110 ft
Moscow Mountain 0 in 4700 ft
Sunset 0 in 5540 ft
Humboldt Gulch 1 in 4250 ft

Earthquake Activity

City Distance Mag. Time & Date
No recent earthquake activity has been reported nearby.
Minimum magnitude displayed is 2.5.

Coastal Water Temperatures

Place Temperature
No Stations Reporting

Nearby Weather Stations

Station Location Temp. Dew Point Humidity Wind Precip. Elev Updated Type
Fernwood, ID 58.8 °F 48 °F 66% WSW  at  0.0 mph 0.00 in / hr 2818 ft 12:00 AM PDT Rapid Fire
ranch land , mountains, Fernwood, ID 59.0 °F 54 °F 82% ESE  at  0.0 mph 0.00 in / hr 2835 ft 12:00 AM PDT Rapid Fire

Show More Stations Show Fewer Stations